Time;durP1;ratioP1;P1;durP2;ratioP2;P2;SDS_P1;SDS_P2;PMS_P1;PMS_P2;Temp;Humidity;BMP_temperature;BMP_pressure;BME280_temperature;BME280_humidity;BME280_pressure;Samples;Min_cycle;Max_cycle;Signal;HPM_P1;HPM_P2
2022/08/26 00:01:55;;;;;;;10.68;7.80;;;;;;;26.97;52.16;100805.56;5007731;28;20612;-81
2022/08/26 00:04:23;;;;;;;9.60;7.60;;;;;;;27.04;52.42;100818.00;4989750;28;20065;-81
2022/08/26 00:06:52;;;;;;;10.30;7.43;;;;;;;26.83;52.37;100784.03;4989820;28;20394;-81
2022/08/26 00:09:19;;;;;;;12.32;8.20;;;;;;;26.98;52.21;100813.47;5005907;28;20661;-81
2022/08/26 00:11:46;;;;;;;11.65;7.32;;;;;;;26.94;52.31;100812.28;4989493;28;20061;-82
2022/08/26 00:14:14;;;;;;;12.40;7.38;;;;;;;26.93;52.65;100805.22;4989210;28;20544;-82
2022/08/26 00:16:41;;;;;;;15.43;8.35;;;;;;;27.00;52.29;100832.31;4989312;28;20294;-81
2022/08/26 00:19:15;;;;;;;10.05;7.57;;;;;;;26.84;52.50;100807.47;4989528;28;20057;-80
2022/08/26 00:21:42;;;;;;;13.20;7.90;;;;;;;26.91;52.73;100818.22;4989565;28;20127;-81
2022/08/26 00:24:09;;;;;;;14.88;7.47;;;;;;;26.76;52.48;100801.56;4989899;28;20270;-80
2022/08/26 00:26:36;;;;;;;12.55;8.55;;;;;;;26.90;52.71;100824.75;4989623;28;20130;-81
2022/08/26 00:29:03;;;;;;;9.63;6.97;;;;;;;26.89;52.22;100803.19;4989732;28;20057;-81
2022/08/26 00:31:31;;;;;;;8.07;6.70;;;;;;;26.97;51.72;100805.56;4989563;28;20053;-82
2022/08/26 00:33:58;;;;;;;12.07;8.10;;;;;;;26.96;52.00;100810.16;5007396;28;20057;-80
2022/08/26 00:36:25;;;;;;;10.68;7.82;;;;;;;26.71;51.76;100763.34;4988798;28;20244;-81
2022/08/26 00:38:56;;;;;;;15.40;7.15;;;;;;;27.00;51.42;100808.63;5007759;28;20049;-81
2022/08/26 00:41:23;;;;;;;12.05;7.45;;;;;;;27.02;51.49;100806.50;4989789;28;20456;-81
2022/08/26 00:43:51;;;;;;;10.27;6.75;;;;;;;26.78;50.87;100764.84;4989740;28;20057;-81
2022/08/26 00:46:27;;;;;;;9.57;7.60;;;;;;;26.73;50.98;100751.13;5005560;28;20535;-81
2022/08/26 00:49:04;;;;;;;11.95;7.40;;;;;;;27.11;51.27;100819.72;4967850;28;20517;-82
2022/08/26 00:51:44;;;;;;;10.95;7.32;;;;;;;27.18;50.97;100820.44;4967988;28;20092;-81
2022/08/26 00:54:11;;;;;;;9.77;7.38;;;;;;;27.08;51.08;100816.41;4952287;28;20509;-80
2022/08/26 00:56:49;;;;;;;9.32;6.43;;;;;;;27.08;51.12;100819.13;4970286;28;20169;-81
2022/08/26 00:59:16;;;;;;;10.25;7.07;;;;;;;27.07;50.87;100819.41;4982360;28;20757;-80
2022/08/26 01:01:43;;;;;;;8.82;7.93;;;;;;;26.96;51.01;100802.00;5006384;28;20058;-81
2022/08/26 01:04:16;;;;;;;12.20;7.68;;;;;;;26.99;50.52;100800.69;5003700;28;20540;-82
2022/08/26 01:06:43;;;;;;;9.00;7.25;;;;;;;27.05;51.32;100807.91;5004720;28;20257;-81
2022/08/26 01:09:11;;;;;;;13.23;7.88;;;;;;;26.91;51.33;100785.56;5005596;28;20166;-81
2022/08/26 01:11:38;;;;;;;9.77;7.57;;;;;;;27.00;51.09;100800.47;5006701;28;20162;-81
2022/08/26 01:14:07;;;;;;;10.18;7.03;;;;;;;26.99;51.21;100804.25;5021611;28;20049;-80
2022/08/26 01:16:35;;;;;;;12.82;7.38;;;;;;;26.66;51.06;100744.19;5004516;28;20056;-80
2022/08/26 01:19:14;;;;;;;10.15;6.45;;;;;;;26.69;50.48;100735.53;5004918;28;20200;-81
2022/08/26 01:21:48;;;;;;;17.02;7.45;;;;;;;27.05;50.90;100797.84;5004543;28;20292;-81
2022/08/26 01:24:17;;;;;;;8.98;7.78;;;;;;;26.96;50.86;100791.09;5004971;28;20180;-81
2022/08/26 01:26:44;;;;;;;12.55;8.18;;;;;;;26.84;50.97;100780.22;5004532;28;20056;-80
2022/08/26 01:29:15;;;;;;;9.32;6.45;;;;;;;26.97;50.88;100800.94;5006592;28;20129;-81
2022/08/26 01:31:46;;;;;;;10.52;7.15;;;;;;;26.94;50.90;100795.94;5004925;28;20045;-81
2022/08/26 01:34:24;;;;;;;8.20;7.22;;;;;;;26.96;50.94;100793.00;5004934;28;20572;-80
2022/08/26 01:37:00;;;;;;;9.05;7.93;;;;;;;26.60;51.33;100757.69;5004027;28;20150;-81
2022/08/26 01:39:27;;;;;;;13.82;8.50;;;;;;;26.83;51.13;100794.09;5004248;28;20531;-81
2022/08/26 01:41:56;;;;;;;14.07;7.53;;;;;;;26.82;51.54;100806.91;5004513;28;20057;-81
2022/08/26 01:44:37;;;;;;;10.40;6.57;;;;;;;26.80;51.62;100794.59;5006191;28;20084;-80
2022/08/26 01:47:05;;;;;;;13.35;8.18;;;;;;;26.76;51.91;100796.13;5000084;28;20046;-81
2022/08/26 01:49:35;;;;;;;13.50;8.45;;;;;;;26.63;51.90;100784.41;4985663;28;20127;-80
2022/08/26 01:52:04;;;;;;;10.00;7.15;;;;;;;26.55;51.87;100776.59;4986917;28;20053;-80
2022/08/26 01:54:32;;;;;;;8.02;7.22;;;;;;;26.66;52.01;100795.91;5000231;28;20054;-80
2022/08/26 01:56:59;;;;;;;10.88;8.18;;;;;;;26.63;52.11;100795.31;5005904;28;20120;-79
2022/08/26 01:59:29;;;;;;;9.45;6.65;;;;;;;26.59;52.26;100783.22;5015324;28;20405;-79
2022/08/26 02:01:56;;;;;;;9.90;6.88;;;;;;;26.66;51.94;100793.19;5027051;28;20547;-79
2022/08/26 02:04:58;;;;;;;12.35;8.63;;;;;;;26.64;52.33;100791.50;5025221;28;20045;-80
2022/08/26 02:07:26;;;;;;;12.85;7.47;;;;;;;26.61;52.22;100783.81;5010219;28;20052;-80
2022/08/26 02:09:53;;;;;;;9.50;6.95;;;;;;;26.62;52.13;100788.19;5025305;28;20057;-82
2022/08/26 02:12:21;;;;;;;12.32;8.35;;;;;;;26.60;52.48;100787.63;5025774;28;20108;-80
2022/08/26 02:14:58;;;;;;;10.18;8.65;;;;;;;26.51;52.40;100780.03;5025136;28;20448;-79
2022/08/26 02:17:32;;;;;;;13.25;7.55;;;;;;;26.52;52.51;100790.66;5025313;28;20148;-79
2022/08/26 02:20:01;;;;;;;13.25;8.32;;;;;;;26.53;52.65;100795.09;5025126;28;20451;-79
2022/08/26 02:22:29;;;;;;;11.35;8.77;;;;;;;26.33;52.54;100759.19;5025112;28;20496;-79
2022/08/26 02:25:00;;;;;;;13.18;7.00;;;;;;;26.27;52.57;100752.81;5041910;28;20045;-79
2022/08/26 02:27:31;;;;;;;11.05;8.90;;;;;;;26.49;52.27;100793.88;5026247;28;20056;-79
2022/08/26 02:30:15;;;;;;;10.25;7.75;;;;;;;26.42;52.82;100796.69;5025472;28;20525;-78
2022/08/26 02:32:43;;;;;;;8.15;7.35;;;;;;;26.40;52.52;100795.28;5025207;28;20052;-79
2022/08/26 02:35:12;;;;;;;9.90;7.55;;;;;;;26.28;52.39;100764.53;5025362;28;20054;-80
2022/08/26 02:37:47;;;;;;;13.18;7.80;;;;;;;26.30;52.81;100779.53;5026056;28;20058;-79
2022/08/26 02:40:20;;;;;;;7.57;6.20;;;;;;;26.37;52.72;100790.31;5026434;28;20572;-78
2022/08/26 02:42:48;;;;;;;10.75;8.55;;;;;;;26.37;52.84;100793.88;5026728;28;20141;-79
2022/08/26 02:45:18;;;;;;;;;;;;;;;26.30;53.19;100786.88;5029707;28;20049;-79
2022/08/26 02:47:50;;;;;;;12.00;8.23;;;;;;;26.30;52.29;100765.13;5017557;28;19931;-79
2022/08/26 02:50:17;;;;;;;10.07;6.90;;;;;;;25.97;53.02;100718.38;5025590;28;20050;-79
2022/08/26 02:52:44;;;;;;;11.55;8.60;;;;;;;26.37;53.30;100791.13;5025592;28;20092;-78
2022/08/26 02:55:11;;;;;;;7.47;6.68;;;;;;;26.39;52.80;100789.00;5025702;28;20050;-79
2022/08/26 02:57:38;;;;;;;10.35;7.60;;;;;;;26.46;52.79;100794.34;5027370;28;20046;-76
2022/08/26 03:00:08;;;;;;;11.57;7.10;;;;;;;26.36;53.13;100800.38;5029169;28;20247;-79
2022/08/26 03:02:34;;;;;;;14.52;9.07;;;;;;;26.08;53.86;100781.19;5031854;28;20127;-80
2022/08/26 03:05:01;;;;;;;11.32;8.38;;;;;;;26.12;54.19;100799.53;5028525;28;20477;-79
2022/08/26 03:07:29;;;;;;;13.52;9.52;;;;;;;26.01;54.86;100803.88;5030061;28;20061;-79
2022/08/26 03:09:57;;;;;;;13.77;9.05;;;;;;;25.86;55.37;100811.66;5028492;28;20131;-79
2022/08/26 03:12:23;;;;;;;12.15;8.70;;;;;;;25.76;55.98;100804.03;5028709;28;20079;-79
2022/08/26 03:14:51;;;;;;;13.75;9.27;;;;;;;25.61;56.16;100783.75;5029758;28;20416;-79
2022/08/26 03:17:18;;;;;;;11.13;9.95;;;;;;;25.58;56.44;100793.22;5029465;28;20061;-79
2022/08/26 03:19:44;;;;;;;14.27;9.38;;;;;;;25.57;56.73;100802.44;5029812;28;20111;-78
2022/08/26 03:22:11;;;;;;;12.35;8.95;;;;;;;25.55;56.66;100804.56;5028628;28;20041;-79
2022/08/26 03:24:40;;;;;;;13.73;10.05;;;;;;;25.46;57.28;100806.75;5044713;28;20053;-79
2022/08/26 03:27:12;;;;;;;11.55;9.18;;;;;;;25.21;57.57;100787.88;5028492;28;20045;-79
2022/08/26 03:32:26;;;;;;;12.57;8.98;;;;;;;24.83;57.48;100726.50;5029143;28;20417;-79
2022/08/26 03:34:55;;;;;;;8.50;7.38;;;;;;;25.11;57.24;100782.13;5029456;28;20068;-79
2022/08/26 03:37:21;;;;;;;12.38;7.93;;;;;;;25.33;56.96;100796.06;5044349;28;20675;-78
2022/08/26 03:39:48;;;;;;;9.07;8.13;;;;;;;25.33;57.00;100802.31;5028506;28;20054;-80
2022/08/26 03:42:15;;;;;;;10.73;8.00;;;;;;;25.21;57.30;100804.16;5028236;28;20496;-79
2022/08/26 03:44:42;;;;;;;11.68;8.30;;;;;;;24.97;57.30;100775.19;5027918;28;20061;-79
2022/08/26 03:47:09;;;;;;;15.15;8.68;;;;;;;25.10;57.51;100802.19;5022108;28;20435;-80
2022/08/26 03:49:36;;;;;;;11.15;8.52;;;;;;;25.02;57.76;100794.34;5007940;28;20050;-79
2022/08/26 03:52:03;;;;;;;13.13;8.27;;;;;;;24.95;57.74;100768.09;5008162;28;20061;-79
2022/08/26 03:54:31;;;;;;;10.13;7.55;;;;;;;24.99;57.96;100797.53;5006709;28;20053;-79
2022/08/26 03:56:57;;;;;;;11.77;7.75;;;;;;;24.79;57.89;100757.84;5024377;28;20123;-79
2022/08/26 03:59:24;;;;;;;12.15;7.60;;;;;;;24.98;58.29;100790.41;5017400;28;20131;-79
2022/08/26 04:01:51;;;;;;;8.73;7.65;;;;;;;24.98;58.17;100793.13;5027416;28;20281;-79
2022/08/26 04:04:18;;;;;;;15.80;8.00;;;;;;;24.74;58.25;100760.41;5028758;28;20081;-79
2022/08/26 04:06:49;;;;;;;8.77;7.93;;;;;;;24.98;58.27;100793.13;5027387;28;20051;-80
2022/08/26 04:09:19;;;;;;;9.50;7.75;;;;;;;24.87;58.49;100792.00;5044459;28;20041;-81
2022/08/26 04:11:47;;;;;;;11.93;8.45;;;;;;;24.92;57.97;100789.44;5027539;28;20362;-79
2022/08/26 04:14:19;;;;;;;13.27;9.52;;;;;;;25.06;57.79;100804.53;5027913;28;20378;-78
2022/08/26 04:16:47;;;;;;;15.52;8.73;;;;;;;24.93;58.18;100781.06;5027232;28;20037;-79
2022/08/26 04:19:15;;;;;;;11.00;8.05;;;;;;;24.76;57.79;100742.03;5027432;28;20127;-78
2022/08/26 04:21:42;;;;;;;13.57;8.25;;;;;;;25.15;57.49;100794.19;5027192;28;20099;-78
2022/08/26 04:24:12;;;;;;;17.15;9.18;;;;;;;25.06;58.24;100796.38;5025996;28;20115;-80
2022/08/26 04:26:39;;;;;;;14.85;9.43;;;;;;;24.99;58.51;100795.63;5026768;28;20748;-80
2022/08/26 04:29:16;;;;;;;11.82;8.60;;;;;;;25.07;57.81;100787.16;5027284;28;20413;-80
2022/08/26 04:31:43;;;;;;;10.68;9.30;;;;;;;25.23;56.87;100796.63;5027393;28;20064;-80
2022/08/26 04:34:10;;;;;;;16.88;8.95;;;;;;;25.26;56.56;100785.28;5027258;28;20054;-80
2022/08/26 04:36:39;;;;;;;13.15;9.05;;;;;;;25.15;56.39;100772.47;5027155;28;20088;-80
2022/08/26 04:39:10;;;;;;;13.50;8.07;;;;;;;24.85;56.66;100728.94;5027378;28;20321;-79
2022/08/26 04:41:38;;;;;;;16.88;8.27;;;;;;;25.29;56.24;100779.41;5027359;28;20228;-80
2022/08/26 04:44:06;;;;;;;13.20;7.65;;;;;;;25.23;56.69;100779.50;5026937;28;20041;-80
2022/08/26 04:46:34;;;;;;;11.93;7.85;;;;;;;25.15;57.14;100784.16;5042448;28;20067;-80
2022/08/26 04:49:07;;;;;;;10.52;7.88;;;;;;;24.56;57.09;100697.97;5007184;28;20081;-80
2022/08/26 04:51:35;;;;;;;14.00;7.22;;;;;;;24.87;57.62;100743.13;5008911;28;20425;-80
2022/08/26 04:54:05;;;;;;;14.13;7.30;;;;;;;24.62;57.36;100703.34;5007981;28;20049;-80
2022/08/26 04:56:36;;;;;;;10.38;7.82;;;;;;;25.04;56.82;100776.75;5007064;28;20501;-79
2022/08/26 04:59:06;;;;;;;10.90;7.88;;;;;;;25.06;56.71;100773.81;5015179;28;20050;-80
2022/08/26 05:01:44;;;;;;;13.52;9.05;;;;;;;25.24;56.62;100786.56;5029357;28;20306;-80
2022/08/26 05:04:11;;;;;;;14.57;7.20;;;;;;;25.35;56.10;100785.81;5027889;28;20065;-81
2022/08/26 05:06:41;;;;;;;12.63;9.25;;;;;;;25.25;56.71;100767.34;5025996;28;20594;-80
2022/08/26 05:09:08;;;;;;;11.25;7.70;;;;;;;24.77;56.74;100697.53;5026429;28;20300;-79
2022/08/26 05:11:36;;;;;;;12.23;8.52;;;;;;;25.27;56.78;100792.41;5026245;28;20057;-81
2022/08/26 05:14:04;;;;;;;8.77;7.30;;;;;;;25.06;56.63;100752.91;5027360;28;20049;-79
2022/08/26 05:16:31;;;;;;;16.52;8.85;;;;;;;25.27;56.63;100797.81;5027372;28;20119;-80
2022/08/26 05:18:58;;;;;;;11.90;9.15;;;;;;;25.23;56.72;100780.31;5026147;28;20461;-79
2022/08/26 05:21:27;;;;;;;10.93;8.02;;;;;;;25.25;56.60;100788.25;5015145;28;20042;-79
2022/08/26 05:23:55;;;;;;;15.65;8.57;;;;;;;25.34;56.70;100798.56;5005013;28;20053;-80
2022/08/26 05:26:25;;;;;;;9.65;7.25;;;;;;;25.30;56.64;100775.63;5005113;28;20111;-79
2022/08/26 05:28:53;;;;;;;13.10;8.85;;;;;;;25.40;56.60;100791.38;5004879;28;20123;-80
2022/08/26 05:31:27;;;;;;;14.60;8.02;;;;;;;24.90;56.53;100710.94;5005172;28;20165;-80
2022/08/26 05:33:56;;;;;;;14.13;7.50;;;;;;;25.44;56.50;100789.88;5009960;28;20104;-80
2022/08/26 05:36:26;;;;;;;9.82;7.88;;;;;;;25.18;56.59;100749.47;5006700;28;20049;-79
2022/08/26 05:38:54;;;;;;;9.77;8.77;;;;;;;25.16;56.54;100742.34;5021883;28;20058;-81
2022/08/26 05:41:27;;;;;;;12.23;8.60;;;;;;;25.14;56.36;100735.47;5005025;28;20046;-81
2022/08/26 05:44:04;;;;;;;9.05;7.85;;;;;;;25.58;56.34;100795.94;5005407;28;20160;-81
2022/08/26 05:46:32;;;;;;;10.68;8.10;;;;;;;25.61;55.61;100792.78;5005844;28;20420;-80
2022/08/26 05:49:00;;;;;;;14.00;7.40;;;;;;;25.46;55.56;100757.81;5024881;28;20428;-80
2022/08/26 05:51:27;;;;;;;12.88;8.20;;;;;;;25.48;55.26;100761.16;5024764;28;20549;-80
2022/08/26 05:53:56;;;;;;;11.85;8.40;;;;;;;25.77;55.58;100792.09;5024804;28;20049;-81
2022/08/26 05:56:26;;;;;;;11.95;8.00;;;;;;;25.79;55.17;100779.09;5020955;28;20049;-78
2022/08/26 05:58:54;;;;;;;15.65;8.02;;;;;;;25.83;54.96;100782.19;5010189;28;20452;-80
2022/08/26 06:01:25;;;;;;;16.45;7.85;;;;;;;25.79;55.31;100773.66;5023993;28;20501;-79
2022/08/26 06:03:56;;;;;;;10.47;7.57;;;;;;;25.97;55.19;100796.41;5041153;28;20195;-78
2022/08/26 06:06:31;;;;;;;14.88;8.27;;;;;;;26.02;54.70;100801.97;5002837;28;20421;-79
2022/08/26 06:09:00;;;;;;;13.80;7.50;;;;;;;25.72;55.52;100736.75;5005510;28;20073;-80
2022/08/26 06:11:28;;;;;;;14.02;8.25;;;;;;;26.14;55.55;100807.44;5005089;28;20046;-80
2022/08/26 06:13:59;;;;;;;12.48;8.30;;;;;;;26.12;55.87;100809.56;5007583;28;20066;-79
2022/08/26 06:16:32;;;;;;;16.70;8.25;;;;;;;25.79;55.35;100735.59;5004202;28;20042;-77
2022/08/26 06:19:01;;;;;;;12.13;7.68;;;;;;;26.42;53.94;100810.31;5005095;28;20050;-77
2022/08/26 06:21:31;;;;;;;11.15;6.82;;;;;;;26.51;55.26;100775.41;5005936;28;20046;-77
2022/08/26 06:26:56;;;;;;;8.75;6.75;;;;;;;26.67;53.45;100773.03;5006798;28;20076;-77
2022/08/26 06:29:24;;;;;;;13.82;8.65;;;;;;;26.86;53.26;100810.78;5004625;28;20501;-76
2022/08/26 06:31:55;;;;;;;13.20;8.77;;;;;;;26.77;52.81;100814.09;5005362;28;20352;-77
2022/08/26 06:34:23;;;;;;;23.45;8.45;;;;;;;26.71;54.82;100785.13;5005513;28;20128;-76
2022/08/26 06:37:04;;;;;;;12.57;9.32;;;;;;;26.54;52.81;100750.44;5006542;28;20061;-76
2022/08/26 06:39:32;;;;;;;31.23;9.65;;;;;;;27.04;53.80;100798.91;5005040;28;20390;-76
2022/08/26 06:41:59;;;;;;;17.05;8.15;;;;;;;26.93;54.09;100799.75;5005870;28;20069;-76
2022/08/26 06:44:28;;;;;;;14.25;8.05;;;;;;;26.90;53.39;100785.81;5001680;28;20051;-77
2022/08/26 06:46:55;;;;;;;13.38;8.73;;;;;;;26.84;52.84;100784.84;5009500;28;20286;-77
2022/08/26 06:49:22;;;;;;;11.27;7.90;;;;;;;26.96;53.49;100802.00;5025040;28;20083;-76
2022/08/26 06:51:54;;;;;;;12.98;7.85;;;;;;;27.03;52.81;100804.59;5024835;28;20045;-76
2022/08/26 06:54:21;;;;;;;16.20;7.95;;;;;;;27.09;52.89;100806.38;5024844;28;20497;-77
2022/08/26 06:56:48;;;;;;;12.20;8.93;;;;;;;26.99;51.69;100787.06;5026102;28;20084;-76
2022/08/26 06:59:15;;;;;;;11.00;8.55;;;;;;;26.97;51.86;100783.78;5016981;28;20053;-76
2022/08/26 07:01:46;;;;;;;13.30;8.82;;;;;;;26.71;51.69;100739.66;5025162;28;20058;-77
2022/08/26 07:04:16;;;;;;;21.48;8.93;;;;;;;27.21;53.93;100811.78;5027105;28;20045;-76
2022/08/26 07:06:48;;;;;;;14.02;7.97;;;;;;;27.27;52.50;100806.22;5011741;28;20053;-77
2022/08/26 07:09:16;;;;;;;17.27;9.10;;;;;;;27.27;53.22;100810.84;5010147;28;20133;-76
2022/08/26 07:11:43;;;;;;;12.57;8.05;;;;;;;26.79;52.34;100722.09;5026099;28;20580;-77
2022/08/26 07:14:11;;;;;;;15.35;8.13;;;;;;;26.53;51.95;100658.97;5025134;28;20064;-77
2022/08/26 07:16:38;;;;;;;13.60;8.38;;;;;;;27.35;52.31;100815.91;5024957;28;20053;-77
2022/08/26 07:19:06;;;;;;;19.35;9.10;;;;;;;27.52;52.30;100813.22;5008157;28;20045;-77
2022/08/26 07:21:39;;;;;;;17.73;9.27;;;;;;;27.49;51.42;100814.53;5000842;28;20046;-77
2022/08/26 07:24:06;;;;;;;13.98;8.63;;;;;;;27.48;50.37;100818.34;4968760;28;20474;-76
2022/08/26 07:26:33;;;;;;;10.60;7.55;;;;;;;27.51;52.27;100821.66;4968168;28;20104;-76
2022/08/26 07:29:00;;;;;;;11.07;7.40;;;;;;;27.66;51.85;100824.66;4987695;28;20052;-77
2022/08/26 07:31:30;;;;;;;17.48;8.55;;;;;;;27.81;51.57;100826.84;5001376;28;20081;-78
2022/08/26 07:34:06;;;;;;;12.90;7.65;;;;;;;27.56;51.62;100825.31;4992469;28;20061;-76
2022/08/26 07:36:33;;;;;;;15.40;8.85;;;;;;;27.53;51.68;100819.53;4991701;28;20045;-77
2022/08/26 07:39:00;;;;;;;20.30;9.05;;;;;;;27.58;51.07;100822.34;5008706;28;20466;-77
2022/08/26 07:41:28;;;;;;;10.40;8.55;;;;;;;27.54;50.88;100815.72;4991256;28;20085;-78
2022/08/26 07:43:55;;;;;;;11.02;7.75;;;;;;;27.92;51.22;100837.72;5008410;28;20064;-78
2022/08/26 07:46:22;;;;;;;14.75;8.13;;;;;;;27.65;50.96;100809.38;5002784;28;20546;-77
2022/08/26 07:48:56;;;;;;;11.45;7.97;;;;;;;27.77;50.77;100840.16;4983290;28;20108;-77
2022/08/26 07:51:23;;;;;;;11.35;9.25;;;;;;;27.64;50.95;100813.16;5000609;28;20448;-78
2022/08/26 07:53:50;;;;;;;10.50;8.13;;;;;;;27.81;51.02;100829.56;4971731;28;20054;-77
2022/08/26 07:56:18;;;;;;;16.42;8.18;;;;;;;27.46;50.61;100798.66;5026979;28;20059;-77
2022/08/26 07:58:45;;;;;;;10.32;8.32;;;;;;;27.77;51.04;100826.50;5010165;28;20600;-77
2022/08/26 08:01:22;;;;;;;11.90;8.82;;;;;;;27.82;50.30;100832.09;5011027;28;20417;-78
2022/08/26 08:03:51;;;;;;;18.40;9.88;;;;;;;27.73;51.43;100838.97;4991074;28;20045;-77
2022/08/26 08:06:24;;;;;;;18.02;9.93;;;;;;;27.55;52.16;100837.28;4991232;28;20414;-77
2022/08/26 08:08:54;;;;;;;15.40;8.63;;;;;;;27.60;51.78;100825.63;4991433;28;20567;-78
2022/08/26 08:11:21;;;;;;;12.88;7.97;;;;;;;27.59;52.15;100822.06;5007039;28;20425;-76
2022/08/26 08:13:49;;;;;;;13.20;9.10;;;;;;;27.45;52.35;100790.72;4990737;28;20042;-77
2022/08/26 08:16:24;;;;;;;9.82;7.85;;;;;;;28.01;51.33;100840.03;4991655;28;20050;-76
2022/08/26 08:18:52;;;;;;;18.00;9.60;;;;;;;27.98;51.51;100815.97;4969480;28;20050;-77
2022/08/26 08:21:19;;;;;;;12.73;8.75;;;;;;;27.92;51.59;100829.53;4979189;28;20173;-77
2022/08/26 08:23:54;;;;;;;13.40;9.95;;;;;;;28.01;51.63;100837.31;4955815;28;20073;-76
2022/08/26 08:26:22;;;;;;;15.38;9.15;;;;;;;27.95;51.69;100841.84;4965677;28;20056;-77
2022/08/26 08:28:52;;;;;;;15.48;10.55;;;;;;;28.12;51.10;100836.41;4970417;28;20050;-75
2022/08/26 08:31:33;;;;;;;12.50;9.80;;;;;;;27.81;51.05;100784.00;4970921;28;20054;-76
2022/08/26 08:34:19;;;;;;;12.63;9.15;;;;;;;28.26;50.85;100840.47;4973048;28;20043;-77
2022/08/26 08:36:47;;;;;;;12.43;8.50;;;;;;;28.53;50.18;100845.28;4956561;28;20055;-76
2022/08/26 08:39:15;;;;;;;19.65;11.38;;;;;;;28.04;51.04;100801.38;4969379;28;20129;-77
2022/08/26 08:42:03;;;;;;;14.93;9.18;;;;;;;28.28;50.81;100827.41;4988513;28;20294;-76
2022/08/26 08:44:29;;;;;;;14.68;10.35;;;;;;;28.37;50.39;100840.63;4971296;28;20050;-77
2022/08/26 08:47:04;;;;;;;19.42;10.45;;;;;;;28.30;50.36;100841.66;4967355;28;20049;-75
2022/08/26 08:49:32;;;;;;;14.70;10.90;;;;;;;28.37;50.03;100840.63;4952321;28;20069;-76
2022/08/26 08:52:18;;;;;;;19.10;10.55;;;;;;;28.26;50.17;100834.19;4952221;28;20090;-77
2022/08/26 08:54:45;;;;;;;17.25;9.10;;;;;;;27.92;50.83;100780.44;4955559;28;20058;-76
2022/08/26 08:57:23;;;;;;;17.63;9.18;;;;;;;28.54;50.77;100836.00;4970930;28;20073;-76
2022/08/26 09:00:03;;;;;;;17.75;9.93;;;;;;;28.55;50.23;100834.94;5001203;28;20050;-75
2022/08/26 09:02:41;;;;;;;16.70;10.77;;;;;;;28.37;50.56;100818.78;5006784;28;20103;-76
2022/08/26 09:05:14;;;;;;;14.00;11.32;;;;;;;28.58;50.21;100818.06;5026525;28;20055;-77
2022/08/26 09:07:51;;;;;;;18.05;10.07;;;;;;;28.56;50.36;100812.00;5027200;28;20050;-76
2022/08/26 09:10:42;;;;;;;13.93;12.05;;;;;;;28.50;49.34;100780.25;5028709;28;20056;-76
2022/08/26 09:13:12;;;;;;;18.40;12.85;;;;;;;28.43;50.03;100774.94;5013696;28;20124;-76
2022/08/26 09:16:24;;;;;;;20.55;11.65;;;;;;;28.69;50.18;100811.66;5006418;28;20060;-75
2022/08/26 09:19:22;;;;;;;14.05;9.80;;;;;;;28.74;50.25;100810.88;4980664;28;20072;-75
2022/08/26 09:21:59;;;;;;;12.13;9.25;;;;;;;28.92;49.93;100805.13;4987179;28;20097;-75
2022/08/26 09:24:34;;;;;;;14.60;8.52;;;;;;;29.12;48.56;100782.72;4990058;28;20062;-76
2022/08/26 09:27:07;;;;;;;12.95;8.57;;;;;;;28.83;49.42;100805.81;5026383;28;20050;-79
2022/08/26 09:29:43;;;;;;;13.68;8.63;;;;;;;28.80;49.20;100792.69;5026430;28;20049;-78
2022/08/26 09:32:23;;;;;;;16.25;8.50;;;;;;;28.80;49.94;100796.22;5009961;28;20049;-78
2022/08/26 09:34:57;;;;;;;17.17;11.53;;;;;;;28.73;50.50;100785.47;5008680;28;20054;-78
2022/08/26 09:37:35;;;;;;;14.32;10.02;;;;;;;29.11;48.52;100772.88;5006077;28;20093;-78
2022/08/26 09:40:28;;;;;;;12.25;9.00;;;;;;;28.90;49.41;100784.59;5002945;28;20476;-78
2022/08/26 09:43:08;;;;;;;10.25;8.43;;;;;;;28.77;49.80;100781.19;5002773;28;20289;-77
2022/08/26 09:45:38;;;;;;;15.13;9.90;;;;;;;28.65;50.04;100788.66;4988090;28;20050;-77
2022/08/26 09:48:07;;;;;;;14.13;11.13;;;;;;;28.81;49.77;100781.47;5001350;28;20050;-80
2022/08/26 09:50:38;;;;;;;17.80;10.85;;;;;;;29.12;49.21;100787.38;4986831;28;20057;-78
2022/08/26 09:53:18;;;;;;;16.73;10.65;;;;;;;29.44;47.63;100790.16;5000796;28;20057;-80
2022/08/26 09:56:11;;;;;;;19.35;10.90;;;;;;;29.63;47.24;100776.97;4986789;28;20058;-78
2022/08/26 09:58:40;;;;;;;17.80;11.05;;;;;;;29.96;46.87;100797.00;5007492;28;20390;-81
2022/08/26 10:01:14;;;;;;;15.48;10.38;;;;;;;29.90;46.00;100749.59;5025490;28;20049;-80
2022/08/26 10:03:42;;;;;;;13.00;11.63;;;;;;;29.80;45.61;100700.25;5022306;28;20053;-80
2022/08/26 10:06:11;;;;;;;13.82;9.93;;;;;;;30.63;45.57;100773.66;5022886;28;20053;-81
2022/08/26 10:08:43;;;;;;;17.77;10.23;;;;;;;30.87;45.15;100779.56;5023809;28;20056;-76
2022/08/26 10:11:23;;;;;;;18.83;9.73;;;;;;;31.09;41.93;100771.97;5026134;28;20100;-80
2022/08/26 10:14:01;;;;;;;14.95;10.45;;;;;;;31.25;40.96;100764.59;5025106;28;20588;-81
2022/08/26 10:16:35;;;;;;;14.15;9.57;;;;;;;31.09;42.01;100697.09;5025290;28;20076;-81
2022/08/26 10:19:08;;;;;;;14.45;9.43;;;;;;;31.45;40.70;100719.97;5025280;28;20058;-80
2022/08/26 10:21:43;;;;;;;13.82;9.27;;;;;;;31.72;40.94;100749.88;5026592;28;20049;-80
2022/08/26 10:24:17;;;;;;;12.13;8.60;;;;;;;31.87;40.79;100729.84;5026595;28;20137;-81
2022/08/26 10:27:06;;;;;;;14.57;11.73;;;;;;;32.21;40.61;100761.41;5025345;28;20424;-80
2022/08/26 10:29:45;;;;;;;15.93;10.45;;;;;;;32.36;40.45;100755.91;5025356;28;20141;-80
2022/08/26 10:32:30;;;;;;;15.98;11.73;;;;;;;32.51;38.15;100758.63;5026678;28;20057;-81
2022/08/26 10:34:59;;;;;;;18.73;9.40;;;;;;;32.43;38.82;100717.97;5025093;28;20208;-80
2022/08/26 10:37:34;;;;;;;16.05;9.40;;;;;;;32.86;37.62;100754.09;5025287;28;20061;-80
2022/08/26 10:40:09;;;;;;;14.27;9.70;;;;;;;32.85;37.57;100735.97;5030117;28;20054;-81
2022/08/26 10:43:05;;;;;;;10.82;9.60;;;;;;;33.12;37.30;100740.25;5005367;28;20437;-80
2022/08/26 10:45:52;;;;;;;17.05;9.40;;;;;;;33.08;36.71;100712.47;5005523;28;20053;-81
2022/08/26 10:48:21;;;;;;;15.90;9.82;;;;;;;33.49;36.49;100744.41;5020967;28;20216;-81
2022/08/26 10:50:48;;;;;;;11.10;8.95;;;;;;;33.58;35.88;100737.22;5001388;28;20069;-82
2022/08/26 10:53:18;;;;;;;12.73;9.00;;;;;;;33.64;35.45;100738.81;4984884;28;20058;-80
2022/08/26 10:56:04;;;;;;;11.68;9.13;;;;;;;33.79;35.63;100738.69;4985087;28;20051;-81
2022/08/26 10:58:40;;;;;;;9.93;8.50;;;;;;;33.56;35.68;100689.88;4987303;28;20215;-80
2022/08/26 11:01:42;;;;;;;14.90;9.13;;;;;;;33.93;34.50;100710.47;5021437;28;20509;-80
2022/08/26 11:04:37;;;;;;;16.58;9.50;;;;;;;34.23;35.01;100736.94;5007411;28;20049;-81
2022/08/26 11:07:37;;;;;;;9.18;7.80;;;;;;;34.25;34.50;100730.00;5009056;28;20493;-80
2022/08/26 11:10:28;;;;;;;12.00;9.52;;;;;;;34.04;34.73;100681.72;5007296;28;20053;-80
2022/08/26 11:13:02;;;;;;;11.45;9.25;;;;;;;34.46;34.46;100708.53;5009822;28;20096;-82
2022/08/26 11:15:29;;;;;;;14.93;8.35;;;;;;;34.73;34.32;100712.66;5009394;28;20037;-82
2022/08/26 11:18:00;;;;;;;10.15;7.55;;;;;;;34.40;34.11;100649.09;5007765;28;20148;-82
2022/08/26 11:20:44;;;;;;;17.75;9.57;;;;;;;34.83;34.04;100711.69;5006427;28;20057;-82
2022/08/26 11:23:12;;;;;;;19.92;9.23;;;;;;;34.92;33.55;100709.91;5006912;28;20269;-82
2022/08/26 11:26:00;;;;;;;11.85;7.80;;;;;;;35.12;33.10;100703.31;5009638;28;20046;-81
2022/08/26 11:28:34;;;;;;;14.02;7.72;;;;;;;35.18;33.50;100682.00;5009561;28;20112;-81
2022/08/26 11:31:04;;;;;;;10.40;7.60;;;;;;;35.33;32.71;100701.06;5008788;28;20050;-81
2022/08/26 11:33:55;;;;;;;11.45;7.85;;;;;;;35.31;33.67;100695.81;5007818;28;20050;-81
2022/08/26 11:36:41;;;;;;;15.18;8.30;;;;;;;35.17;33.97;100697.69;5023606;28;20054;-81
2022/08/26 11:39:45;;;;;;;15.98;8.02;;;;;;;35.26;33.35;100692.34;5004516;28;20042;-82
2022/08/26 11:42:42;;;;;;;14.98;8.18;;;;;;;35.52;32.44;100677.00;5007292;28;20144;-79
2022/08/26 11:45:17;;;;;;;18.17;9.13;;;;;;;35.60;32.70;100696.78;5004690;28;20058;-82